sensor_id;sensor_type;location;lat;lon;timestamp;P1;durP1;ratioP1;P2;durP2;ratioP2
10045;SDS011;5063;50.878;4.742;2023-03-01T00:02:05;12.63;;;8.17;;
10045;SDS011;5063;50.878;4.742;2023-03-01T00:04:31;9.57;;;7.87;;
10045;SDS011;5063;50.878;4.742;2023-03-01T00:06:57;9.43;;;7.20;;
10045;SDS011;5063;50.878;4.742;2023-03-01T00:09:23;9.53;;;7.50;;
10045;SDS011;5063;50.878;4.742;2023-03-01T00:11:49;12.47;;;7.53;;
10045;SDS011;5063;50.878;4.742;2023-03-01T00:14:15;9.93;;;7.07;;
10045;SDS011;5063;50.878;4.742;2023-03-01T00:16:44;13.10;;;7.63;;
10045;SDS011;5063;50.878;4.742;2023-03-01T00:19:12;9.50;;;7.03;;
10045;SDS011;5063;50.878;4.742;2023-03-01T00:21:39;9.47;;;7.50;;
10045;SDS011;5063;50.878;4.742;2023-03-01T00:24:06;12.53;;;8.00;;
10045;SDS011;5063;50.878;4.742;2023-03-01T00:26:32;9.53;;;6.70;;
10045;SDS011;5063;50.878;4.742;2023-03-01T00:28:58;13.40;;;8.67;;
10045;SDS011;5063;50.878;4.742;2023-03-01T00:31:28;8.90;;;7.23;;
10045;SDS011;5063;50.878;4.742;2023-03-01T00:33:56;8.60;;;7.57;;
10045;SDS011;5063;50.878;4.742;2023-03-01T00:36:25;9.93;;;7.47;;
10045;SDS011;5063;50.878;4.742;2023-03-01T00:38:52;8.73;;;7.10;;
10045;SDS011;5063;50.878;4.742;2023-03-01T00:41:19;11.63;;;8.33;;
10045;SDS011;5063;50.878;4.742;2023-03-01T00:43:47;9.33;;;7.43;;
10045;SDS011;5063;50.878;4.742;2023-03-01T00:46:15;11.57;;;7.50;;
10045;SDS011;5063;50.878;4.742;2023-03-01T00:48:43;9.77;;;7.17;;
10045;SDS011;5063;50.878;4.742;2023-03-01T00:51:13;8.07;;;6.60;;
10045;SDS011;5063;50.878;4.742;2023-03-01T00:53:41;13.83;;;7.27;;
10045;SDS011;5063;50.878;4.742;2023-03-01T00:56:08;10.97;;;8.20;;
10045;SDS011;5063;50.878;4.742;2023-03-01T00:58:35;9.27;;;7.67;;
10045;SDS011;5063;50.878;4.742;2023-03-01T01:01:06;10.10;;;7.33;;
10045;SDS011;5063;50.878;4.742;2023-03-01T01:03:42;9.30;;;6.93;;
10045;SDS011;5063;50.878;4.742;2023-03-01T01:06:13;8.77;;;7.47;;
10045;SDS011;5063;50.878;4.742;2023-03-01T01:08:43;11.57;;;7.40;;
10045;SDS011;5063;50.878;4.742;2023-03-01T01:11:09;13.20;;;8.50;;
10045;SDS011;5063;50.878;4.742;2023-03-01T01:13:37;9.63;;;7.53;;
10045;SDS011;5063;50.878;4.742;2023-03-01T01:16:03;11.23;;;7.70;;
10045;SDS011;5063;50.878;4.742;2023-03-01T01:18:29;9.73;;;8.20;;
10045;SDS011;5063;50.878;4.742;2023-03-01T01:20:55;12.47;;;7.20;;
10045;SDS011;5063;50.878;4.742;2023-03-01T01:23:21;9.87;;;7.63;;
10045;SDS011;5063;50.878;4.742;2023-03-01T01:25:46;10.10;;;8.07;;
10045;SDS011;5063;50.878;4.742;2023-03-01T01:28:12;15.67;;;8.80;;
10045;SDS011;5063;50.878;4.742;2023-03-01T01:30:38;10.03;;;7.40;;
10045;SDS011;5063;50.878;4.742;2023-03-01T01:33:04;11.77;;;7.70;;
10045;SDS011;5063;50.878;4.742;2023-03-01T01:35:29;10.23;;;7.70;;
10045;SDS011;5063;50.878;4.742;2023-03-01T01:37:55;11.53;;;7.43;;
10045;SDS011;5063;50.878;4.742;2023-03-01T01:40:21;10.77;;;7.67;;
10045;SDS011;5063;50.878;4.742;2023-03-01T01:42:46;11.13;;;8.23;;
10045;SDS011;5063;50.878;4.742;2023-03-01T01:45:32;10.97;;;7.23;;
10045;SDS011;5063;50.878;4.742;2023-03-01T01:48:03;8.00;;;7.10;;
10045;SDS011;5063;50.878;4.742;2023-03-01T01:50:35;9.97;;;7.47;;
10045;SDS011;5063;50.878;4.742;2023-03-01T01:53:05;8.83;;;6.67;;
10045;SDS011;5063;50.878;4.742;2023-03-01T01:55:39;10.90;;;7.17;;
10045;SDS011;5063;50.878;4.742;2023-03-01T01:58:13;12.30;;;8.47;;
10045;SDS011;5063;50.878;4.742;2023-03-01T02:00:42;10.87;;;7.60;;
10045;SDS011;5063;50.878;4.742;2023-03-01T02:03:17;9.13;;;7.60;;
10045;SDS011;5063;50.878;4.742;2023-03-01T02:05:53;9.67;;;7.40;;
10045;SDS011;5063;50.878;4.742;2023-03-01T02:08:29;10.20;;;7.50;;
10045;SDS011;5063;50.878;4.742;2023-03-01T02:10:57;12.77;;;8.10;;
10045;SDS011;5063;50.878;4.742;2023-03-01T02:13:30;10.87;;;7.93;;
10045;SDS011;5063;50.878;4.742;2023-03-01T02:15:57;11.20;;;7.80;;
10045;SDS011;5063;50.878;4.742;2023-03-01T02:18:23;11.47;;;9.07;;
10045;SDS011;5063;50.878;4.742;2023-03-01T02:23:24;11.10;;;8.00;;
10045;SDS011;5063;50.878;4.742;2023-03-01T02:25:58;13.73;;;8.17;;
10045;SDS011;5063;50.878;4.742;2023-03-01T02:28:45;13.13;;;8.00;;
10045;SDS011;5063;50.878;4.742;2023-03-01T02:31:14;8.37;;;7.43;;
10045;SDS011;5063;50.878;4.742;2023-03-01T02:34:01;8.87;;;6.90;;
10045;SDS011;5063;50.878;4.742;2023-03-01T02:36:39;11.57;;;8.23;;
10045;SDS011;5063;50.878;4.742;2023-03-01T02:39:26;9.53;;;6.83;;
10045;SDS011;5063;50.878;4.742;2023-03-01T02:41:58;9.37;;;7.23;;
10045;SDS011;5063;50.878;4.742;2023-03-01T02:44:25;9.63;;;6.87;;
10045;SDS011;5063;50.878;4.742;2023-03-01T02:46:51;9.33;;;7.17;;
10045;SDS011;5063;50.878;4.742;2023-03-01T02:49:33;9.97;;;7.80;;
10045;SDS011;5063;50.878;4.742;2023-03-01T02:57:24;10.40;;;7.13;;
10045;SDS011;5063;50.878;4.742;2023-03-01T02:59:52;11.47;;;7.37;;
10045;SDS011;5063;50.878;4.742;2023-03-01T03:02:25;10.03;;;6.63;;
10045;SDS011;5063;50.878;4.742;2023-03-01T03:05:08;10.73;;;7.47;;
10045;SDS011;5063;50.878;4.742;2023-03-01T03:07:37;9.40;;;6.77;;
10045;SDS011;5063;50.878;4.742;2023-03-01T03:10:06;10.07;;;7.80;;
10045;SDS011;5063;50.878;4.742;2023-03-01T03:12:36;8.83;;;7.30;;
10045;SDS011;5063;50.878;4.742;2023-03-01T03:15:03;10.50;;;8.07;;
10045;SDS011;5063;50.878;4.742;2023-03-01T03:17:36;10.93;;;7.73;;
10045;SDS011;5063;50.878;4.742;2023-03-01T03:20:04;11.93;;;7.30;;
10045;SDS011;5063;50.878;4.742;2023-03-01T03:22:31;8.00;;;6.70;;
10045;SDS011;5063;50.878;4.742;2023-03-01T03:24:59;9.67;;;7.13;;
10045;SDS011;5063;50.878;4.742;2023-03-01T03:27:25;14.27;;;7.60;;
10045;SDS011;5063;50.878;4.742;2023-03-01T03:29:50;9.37;;;7.20;;
10045;SDS011;5063;50.878;4.742;2023-03-01T03:32:16;9.67;;;7.77;;
10045;SDS011;5063;50.878;4.742;2023-03-01T03:34:42;11.13;;;8.37;;
10045;SDS011;5063;50.878;4.742;2023-03-01T03:37:08;11.07;;;7.90;;
10045;SDS011;5063;50.878;4.742;2023-03-01T03:39:53;11.03;;;7.43;;
10045;SDS011;5063;50.878;4.742;2023-03-01T03:42:20;11.90;;;8.10;;
10045;SDS011;5063;50.878;4.742;2023-03-01T03:44:47;14.00;;;9.00;;
10045;SDS011;5063;50.878;4.742;2023-03-01T03:47:13;9.30;;;7.50;;
10045;SDS011;5063;50.878;4.742;2023-03-01T03:49:39;11.90;;;7.97;;
10045;SDS011;5063;50.878;4.742;2023-03-01T03:52:05;9.70;;;7.47;;
10045;SDS011;5063;50.878;4.742;2023-03-01T03:54:39;11.07;;;7.53;;
10045;SDS011;5063;50.878;4.742;2023-03-01T03:57:05;10.53;;;8.00;;
10045;SDS011;5063;50.878;4.742;2023-03-01T03:59:31;10.17;;;6.90;;
10045;SDS011;5063;50.878;4.742;2023-03-01T04:01:57;9.43;;;7.80;;
10045;SDS011;5063;50.878;4.742;2023-03-01T04:04:24;11.13;;;7.67;;
10045;SDS011;5063;50.878;4.742;2023-03-01T04:06:50;12.40;;;8.40;;
10045;SDS011;5063;50.878;4.742;2023-03-01T04:09:15;16.50;;;8.40;;
10045;SDS011;5063;50.878;4.742;2023-03-01T04:11:41;13.67;;;9.00;;
10045;SDS011;5063;50.878;4.742;2023-03-01T04:14:07;13.53;;;9.03;;
10045;SDS011;5063;50.878;4.742;2023-03-01T04:16:33;9.93;;;8.00;;
10045;SDS011;5063;50.878;4.742;2023-03-01T04:18:58;10.40;;;7.97;;
10045;SDS011;5063;50.878;4.742;2023-03-01T04:21:25;11.50;;;9.23;;
10045;SDS011;5063;50.878;4.742;2023-03-01T04:23:51;12.07;;;8.77;;
10045;SDS011;5063;50.878;4.742;2023-03-01T04:26:18;12.87;;;9.13;;
10045;SDS011;5063;50.878;4.742;2023-03-01T04:28:45;11.53;;;8.47;;
10045;SDS011;5063;50.878;4.742;2023-03-01T04:31:14;14.93;;;8.90;;
10045;SDS011;5063;50.878;4.742;2023-03-01T04:36:14;10.60;;;7.90;;
10045;SDS011;5063;50.878;4.742;2023-03-01T04:38:41;11.83;;;8.43;;
10045;SDS011;5063;50.878;4.742;2023-03-01T04:41:08;11.17;;;8.27;;
10045;SDS011;5063;50.878;4.742;2023-03-01T04:43:36;10.67;;;7.80;;
10045;SDS011;5063;50.878;4.742;2023-03-01T04:46:03;12.07;;;8.30;;
10045;SDS011;5063;50.878;4.742;2023-03-01T04:48:31;10.07;;;7.80;;
10045;SDS011;5063;50.878;4.742;2023-03-01T04:51:00;9.37;;;7.93;;
10045;SDS011;5063;50.878;4.742;2023-03-01T04:53:26;10.93;;;8.33;;
10045;SDS011;5063;50.878;4.742;2023-03-01T04:55:53;13.77;;;8.47;;
10045;SDS011;5063;50.878;4.742;2023-03-01T04:58:21;10.47;;;7.73;;
10045;SDS011;5063;50.878;4.742;2023-03-01T05:00:48;12.10;;;8.93;;
10045;SDS011;5063;50.878;4.742;2023-03-01T05:03:13;15.77;;;8.33;;
10045;SDS011;5063;50.878;4.742;2023-03-01T05:05:43;9.67;;;7.77;;
10045;SDS011;5063;50.878;4.742;2023-03-01T05:08:10;10.70;;;8.13;;
10045;SDS011;5063;50.878;4.742;2023-03-01T05:10:49;9.17;;;7.37;;
10045;SDS011;5063;50.878;4.742;2023-03-01T05:13:16;10.50;;;7.43;;
10045;SDS011;5063;50.878;4.742;2023-03-01T05:15:53;12.13;;;7.97;;
10045;SDS011;5063;50.878;4.742;2023-03-01T05:18:21;12.07;;;8.13;;
10045;SDS011;5063;50.878;4.742;2023-03-01T05:20:51;10.60;;;8.10;;
10045;SDS011;5063;50.878;4.742;2023-03-01T05:23:17;14.60;;;8.10;;
10045;SDS011;5063;50.878;4.742;2023-03-01T05:25:43;13.60;;;8.53;;
10045;SDS011;5063;50.878;4.742;2023-03-01T05:28:13;10.67;;;7.60;;
10045;SDS011;5063;50.878;4.742;2023-03-01T05:30:39;13.63;;;8.90;;
10045;SDS011;5063;50.878;4.742;2023-03-01T05:33:05;17.07;;;8.87;;
10045;SDS011;5063;50.878;4.742;2023-03-01T05:35:42;11.93;;;7.17;;
10045;SDS011;5063;50.878;4.742;2023-03-01T05:38:09;13.13;;;7.77;;
10045;SDS011;5063;50.878;4.742;2023-03-01T05:40:39;10.90;;;8.27;;
10045;SDS011;5063;50.878;4.742;2023-03-01T05:43:09;11.83;;;7.77;;
10045;SDS011;5063;50.878;4.742;2023-03-01T05:45:36;11.70;;;7.67;;
10045;SDS011;5063;50.878;4.742;2023-03-01T05:48:03;9.93;;;7.77;;
10045;SDS011;5063;50.878;4.742;2023-03-01T05:50:32;10.10;;;7.67;;
10045;SDS011;5063;50.878;4.742;2023-03-01T05:53:04;14.00;;;8.20;;
10045;SDS011;5063;50.878;4.742;2023-03-01T05:55:33;11.10;;;7.20;;
10045;SDS011;5063;50.878;4.742;2023-03-01T05:58:04;11.03;;;7.67;;
10045;SDS011;5063;50.878;4.742;2023-03-01T06:00:31;10.73;;;8.03;;
10045;SDS011;5063;50.878;4.742;2023-03-01T06:02:58;13.10;;;7.63;;
10045;SDS011;5063;50.878;4.742;2023-03-01T06:05:26;12.90;;;7.77;;
10045;SDS011;5063;50.878;4.742;2023-03-01T06:07:53;9.43;;;7.33;;
10045;SDS011;5063;50.878;4.742;2023-03-01T06:10:19;11.27;;;8.03;;
10045;SDS011;5063;50.878;4.742;2023-03-01T06:12:46;10.93;;;8.67;;
10045;SDS011;5063;50.878;4.742;2023-03-01T06:15:12;10.63;;;7.60;;
10045;SDS011;5063;50.878;4.742;2023-03-01T06:17:40;8.60;;;7.27;;
10045;SDS011;5063;50.878;4.742;2023-03-01T06:20:10;10.13;;;7.80;;
10045;SDS011;5063;50.878;4.742;2023-03-01T06:22:41;15.20;;;9.03;;
10045;SDS011;5063;50.878;4.742;2023-03-01T06:25:08;11.73;;;8.27;;
10045;SDS011;5063;50.878;4.742;2023-03-01T06:27:35;10.53;;;8.57;;
10045;SDS011;5063;50.878;4.742;2023-03-01T06:30:01;10.80;;;8.23;;
10045;SDS011;5063;50.878;4.742;2023-03-01T06:32:27;13.07;;;8.33;;
10045;SDS011;5063;50.878;4.742;2023-03-01T06:34:53;11.67;;;8.47;;
10045;SDS011;5063;50.878;4.742;2023-03-01T06:37:19;13.50;;;8.67;;
10045;SDS011;5063;50.878;4.742;2023-03-01T06:39:45;15.67;;;9.20;;
10045;SDS011;5063;50.878;4.742;2023-03-01T06:42:11;14.43;;;9.63;;
10045;SDS011;5063;50.878;4.742;2023-03-01T06:44:37;11.67;;;8.30;;
10045;SDS011;5063;50.878;4.742;2023-03-01T06:47:02;13.17;;;8.87;;
10045;SDS011;5063;50.878;4.742;2023-03-01T06:49:29;14.03;;;9.37;;
10045;SDS011;5063;50.878;4.742;2023-03-01T06:51:55;16.93;;;9.50;;
10045;SDS011;5063;50.878;4.742;2023-03-01T06:54:21;11.67;;;9.20;;
10045;SDS011;5063;50.878;4.742;2023-03-01T06:56:48;12.37;;;9.00;;
10045;SDS011;5063;50.878;4.742;2023-03-01T06:59:14;15.53;;;9.37;;
10045;SDS011;5063;50.878;4.742;2023-03-01T07:01:40;16.43;;;8.93;;
10045;SDS011;5063;50.878;4.742;2023-03-01T07:04:06;11.90;;;8.47;;
10045;SDS011;5063;50.878;4.742;2023-03-01T07:06:32;12.77;;;9.03;;
10045;SDS011;5063;50.878;4.742;2023-03-01T07:08:58;16.37;;;9.40;;
10045;SDS011;5063;50.878;4.742;2023-03-01T07:11:24;11.20;;;8.23;;
10045;SDS011;5063;50.878;4.742;2023-03-01T07:13:49;12.07;;;8.47;;
10045;SDS011;5063;50.878;4.742;2023-03-01T07:16:15;13.97;;;9.10;;
10045;SDS011;5063;50.878;4.742;2023-03-01T07:18:41;12.33;;;8.60;;
10045;SDS011;5063;50.878;4.742;2023-03-01T07:21:07;13.77;;;9.30;;
10045;SDS011;5063;50.878;4.742;2023-03-01T07:23:34;11.80;;;9.70;;
10045;SDS011;5063;50.878;4.742;2023-03-01T07:26:00;13.73;;;10.27;;
10045;SDS011;5063;50.878;4.742;2023-03-01T07:28:26;13.13;;;9.03;;
10045;SDS011;5063;50.878;4.742;2023-03-01T07:30:53;12.03;;;8.47;;
10045;SDS011;5063;50.878;4.742;2023-03-01T07:33:19;12.43;;;8.63;;
10045;SDS011;5063;50.878;4.742;2023-03-01T07:35:45;10.97;;;7.60;;
10045;SDS011;5063;50.878;4.742;2023-03-01T07:38:11;9.97;;;8.10;;
10045;SDS011;5063;50.878;4.742;2023-03-01T07:40:36;9.57;;;7.77;;
10045;SDS011;5063;50.878;4.742;2023-03-01T07:43:02;8.77;;;7.37;;
10045;SDS011;5063;50.878;4.742;2023-03-01T07:45:28;11.80;;;8.00;;
10045;SDS011;5063;50.878;4.742;2023-03-01T07:47:54;11.30;;;7.83;;
10045;SDS011;5063;50.878;4.742;2023-03-01T07:50:21;11.60;;;7.90;;
10045;SDS011;5063;50.878;4.742;2023-03-01T07:52:48;12.07;;;7.97;;
10045;SDS011;5063;50.878;4.742;2023-03-01T07:55:15;10.70;;;7.90;;
10045;SDS011;5063;50.878;4.742;2023-03-01T07:57:41;9.50;;;7.73;;
10045;SDS011;5063;50.878;4.742;2023-03-01T08:00:09;11.93;;;7.53;;
10045;SDS011;5063;50.878;4.742;2023-03-01T08:02:36;11.33;;;7.63;;
10045;SDS011;5063;50.878;4.742;2023-03-01T08:05:02;11.30;;;7.83;;
10045;SDS011;5063;50.878;4.742;2023-03-01T08:07:28;8.97;;;7.27;;
10045;SDS011;5063;50.878;4.742;2023-03-01T08:09:54;10.70;;;7.40;;
10045;SDS011;5063;50.878;4.742;2023-03-01T08:12:20;13.30;;;7.90;;
10045;SDS011;5063;50.878;4.742;2023-03-01T08:14:45;12.07;;;8.27;;
10045;SDS011;5063;50.878;4.742;2023-03-01T08:17:13;11.10;;;7.83;;
10045;SDS011;5063;50.878;4.742;2023-03-01T08:19:39;9.43;;;7.77;;
10045;SDS011;5063;50.878;4.742;2023-03-01T08:22:05;10.07;;;7.77;;
10045;SDS011;5063;50.878;4.742;2023-03-01T08:24:31;11.30;;;7.93;;
10045;SDS011;5063;50.878;4.742;2023-03-01T08:26:57;11.20;;;9.13;;
10045;SDS011;5063;50.878;4.742;2023-03-01T08:29:22;9.17;;;7.67;;
10045;SDS011;5063;50.878;4.742;2023-03-01T08:31:50;11.30;;;8.43;;
10045;SDS011;5063;50.878;4.742;2023-03-01T08:34:17;14.27;;;9.80;;
10045;SDS011;5063;50.878;4.742;2023-03-01T08:36:44;12.77;;;8.83;;
10045;SDS011;5063;50.878;4.742;2023-03-01T08:39:13;11.47;;;8.07;;
10045;SDS011;5063;50.878;4.742;2023-03-01T08:41:41;11.67;;;8.17;;
10045;SDS011;5063;50.878;4.742;2023-03-01T08:44:08;12.43;;;8.63;;
10045;SDS011;5063;50.878;4.742;2023-03-01T08:46:36;12.43;;;9.30;;
10045;SDS011;5063;50.878;4.742;2023-03-01T08:49:04;11.87;;;8.70;;
10045;SDS011;5063;50.878;4.742;2023-03-01T08:51:30;12.10;;;9.23;;
10045;SDS011;5063;50.878;4.742;2023-03-01T08:54:02;11.57;;;8.70;;
10045;SDS011;5063;50.878;4.742;2023-03-01T08:56:29;12.43;;;9.00;;
10045;SDS011;5063;50.878;4.742;2023-03-01T08:58:54;11.73;;;8.50;;
10045;SDS011;5063;50.878;4.742;2023-03-01T09:01:20;12.43;;;8.60;;
10045;SDS011;5063;50.878;4.742;2023-03-01T09:03:46;12.87;;;8.77;;
10045;SDS011;5063;50.878;4.742;2023-03-01T09:06:13;10.37;;;7.90;;
10045;SDS011;5063;50.878;4.742;2023-03-01T09:08:40;12.97;;;8.77;;
10045;SDS011;5063;50.878;4.742;2023-03-01T09:11:08;11.00;;;8.67;;
10045;SDS011;5063;50.878;4.742;2023-03-01T09:13:35;12.77;;;9.23;;
10045;SDS011;5063;50.878;4.742;2023-03-01T09:16:02;15.03;;;8.73;;
10045;SDS011;5063;50.878;4.742;2023-03-01T09:18:29;12.50;;;8.73;;
10045;SDS011;5063;50.878;4.742;2023-03-01T09:21:06;12.77;;;9.87;;
10045;SDS011;5063;50.878;4.742;2023-03-01T09:23:41;12.20;;;9.47;;
10045;SDS011;5063;50.878;4.742;2023-03-01T09:26:09;12.03;;;8.97;;
10045;SDS011;5063;50.878;4.742;2023-03-01T09:28:37;13.93;;;10.27;;
10045;SDS011;5063;50.878;4.742;2023-03-01T09:31:03;13.10;;;9.63;;
10045;SDS011;5063;50.878;4.742;2023-03-01T09:33:30;11.57;;;9.20;;
10045;SDS011;5063;50.878;4.742;2023-03-01T09:36:02;13.27;;;9.57;;
10045;SDS011;5063;50.878;4.742;2023-03-01T09:38:29;14.57;;;9.70;;
10045;SDS011;5063;50.878;4.742;2023-03-01T09:40:55;17.37;;;9.63;;
10045;SDS011;5063;50.878;4.742;2023-03-01T09:43:33;12.80;;;9.10;;
10045;SDS011;5063;50.878;4.742;2023-03-01T09:46:06;15.77;;;9.47;;
10045;SDS011;5063;50.878;4.742;2023-03-01T09:48:43;13.17;;;9.77;;
10045;SDS011;5063;50.878;4.742;2023-03-01T09:51:30;12.13;;;9.27;;
10045;SDS011;5063;50.878;4.742;2023-03-01T09:53:58;13.83;;;9.63;;
10045;SDS011;5063;50.878;4.742;2023-03-01T09:56:33;10.43;;;8.27;;
10045;SDS011;5063;50.878;4.742;2023-03-01T10:05:21;10.77;;;9.10;;
10045;SDS011;5063;50.878;4.742;2023-03-01T10:11:03;13.60;;;8.40;;
10045;SDS011;5063;50.878;4.742;2023-03-01T10:19:11;11.30;;;9.13;;
10045;SDS011;5063;50.878;4.742;2023-03-01T10:21:44;13.20;;;9.40;;
10045;SDS011;5063;50.878;4.742;2023-03-01T10:24:15;12.07;;;9.53;;
10045;SDS011;5063;50.878;4.742;2023-03-01T10:26:54;12.50;;;9.67;;
10045;SDS011;5063;50.878;4.742;2023-03-01T10:32:45;15.97;;;10.00;;
10045;SDS011;5063;50.878;4.742;2023-03-01T10:35:18;9.83;;;8.47;;
10045;SDS011;5063;50.878;4.742;2023-03-01T10:38:08;11.43;;;9.10;;
10045;SDS011;5063;50.878;4.742;2023-03-01T10:40:34;11.83;;;8.80;;
10045;SDS011;5063;50.878;4.742;2023-03-01T10:43:04;13.60;;;9.27;;
10045;SDS011;5063;50.878;4.742;2023-03-01T10:45:38;11.53;;;8.93;;
10045;SDS011;5063;50.878;4.742;2023-03-01T10:48:12;12.67;;;9.37;;
10045;SDS011;5063;50.878;4.742;2023-03-01T10:50:45;12.67;;;10.07;;
10045;SDS011;5063;50.878;4.742;2023-03-01T10:56:13;11.23;;;9.27;;
10045;SDS011;5063;50.878;4.742;2023-03-01T10:58:41;14.03;;;9.07;;
10045;SDS011;5063;50.878;4.742;2023-03-01T11:04:03;10.00;;;8.47;;
10045;SDS011;5063;50.878;4.742;2023-03-01T11:06:32;10.67;;;7.53;;
10045;SDS011;5063;50.878;4.742;2023-03-01T11:11:41;12.70;;;8.87;;
10045;SDS011;5063;50.878;4.742;2023-03-01T11:14:12;16.23;;;8.80;;
10045;SDS011;5063;50.878;4.742;2023-03-01T11:17:10;11.20;;;8.43;;
10045;SDS011;5063;50.878;4.742;2023-03-01T11:19:40;12.07;;;9.03;;
10045;SDS011;5063;50.878;4.742;2023-03-01T11:22:12;11.23;;;8.07;;
10045;SDS011;5063;50.878;4.742;2023-03-01T11:24:53;10.27;;;8.17;;
10045;SDS011;5063;50.878;4.742;2023-03-01T11:27:28;10.23;;;7.97;;
10045;SDS011;5063;50.878;4.742;2023-03-01T11:32:52;12.97;;;9.10;;
10045;SDS011;5063;50.878;4.742;2023-03-01T11:35:54;11.10;;;8.03;;
10045;SDS011;5063;50.878;4.742;2023-03-01T11:38:26;9.50;;;8.30;;
10045;SDS011;5063;50.878;4.742;2023-03-01T11:43:53;12.23;;;8.90;;
10045;SDS011;5063;50.878;4.742;2023-03-01T11:49:08;11.77;;;8.57;;
10045;SDS011;5063;50.878;4.742;2023-03-01T11:59:49;12.57;;;8.77;;
10045;SDS011;5063;50.878;4.742;2023-03-01T12:19:00;10.17;;;7.80;;
10045;SDS011;5063;50.878;4.742;2023-03-01T12:31:04;11.33;;;7.80;;
10045;SDS011;5063;50.878;4.742;2023-03-01T12:38:50;9.60;;;7.97;;
10045;SDS011;5063;50.878;4.742;2023-03-01T12:42:10;9.30;;;7.90;;
10045;SDS011;5063;50.878;4.742;2023-03-01T12:47:44;13.50;;;8.87;;
10045;SDS011;5063;50.878;4.742;2023-03-01T12:50:44;10.43;;;8.80;;
10045;SDS011;5063;50.878;4.742;2023-03-01T12:53:27;10.63;;;7.77;;
10045;SDS011;5063;50.878;4.742;2023-03-01T12:55:58;12.83;;;8.40;;
10045;SDS011;5063;50.878;4.742;2023-03-01T13:04:20;9.47;;;8.23;;
10045;SDS011;5063;50.878;4.742;2023-03-01T13:10:16;11.83;;;8.70;;
10045;SDS011;5063;50.878;4.742;2023-03-01T13:13:12;12.63;;;8.67;;
10045;SDS011;5063;50.878;4.742;2023-03-01T13:15:49;11.83;;;9.23;;
10045;SDS011;5063;50.878;4.742;2023-03-01T13:26:19;9.93;;;8.30;;
10045;SDS011;5063;50.878;4.742;2023-03-01T13:33:49;12.73;;;8.43;;
10045;SDS011;5063;50.878;4.742;2023-03-01T13:46:47;9.67;;;7.47;;
10045;SDS011;5063;50.878;4.742;2023-03-01T13:49:16;11.07;;;8.33;;
10045;SDS011;5063;50.878;4.742;2023-03-01T13:51:48;10.63;;;7.97;;
10045;SDS011;5063;50.878;4.742;2023-03-01T13:54:16;9.63;;;7.70;;
10045;SDS011;5063;50.878;4.742;2023-03-01T13:56:49;10.93;;;7.80;;
10045;SDS011;5063;50.878;4.742;2023-03-01T13:59:19;8.87;;;7.53;;
10045;SDS011;5063;50.878;4.742;2023-03-01T14:01:56;11.20;;;8.23;;
10045;SDS011;5063;50.878;4.742;2023-03-01T14:04:31;11.17;;;7.87;;
10045;SDS011;5063;50.878;4.742;2023-03-01T14:07:20;9.93;;;7.70;;
10045;SDS011;5063;50.878;4.742;2023-03-01T14:09:52;11.97;;;7.97;;
10045;SDS011;5063;50.878;4.742;2023-03-01T14:17:58;10.27;;;7.73;;
10045;SDS011;5063;50.878;4.742;2023-03-01T14:20:33;11.13;;;8.13;;
10045;SDS011;5063;50.878;4.742;2023-03-01T14:23:20;9.77;;;8.20;;
10045;SDS011;5063;50.878;4.742;2023-03-01T14:25:54;11.67;;;7.70;;
10045;SDS011;5063;50.878;4.742;2023-03-01T14:30:56;9.43;;;7.03;;
10045;SDS011;5063;50.878;4.742;2023-03-01T14:33:28;8.50;;;7.60;;
10045;SDS011;5063;50.878;4.742;2023-03-01T14:36:03;8.87;;;7.60;;
10045;SDS011;5063;50.878;4.742;2023-03-01T14:38:38;12.00;;;8.00;;
10045;SDS011;5063;50.878;4.742;2023-03-01T14:41:07;9.23;;;7.63;;
10045;SDS011;5063;50.878;4.742;2023-03-01T14:43:43;11.00;;;7.57;;
10045;SDS011;5063;50.878;4.742;2023-03-01T14:46:20;10.77;;;7.80;;
10045;SDS011;5063;50.878;4.742;2023-03-01T14:48:53;12.90;;;7.57;;
10045;SDS011;5063;50.878;4.742;2023-03-01T14:51:23;9.03;;;6.60;;
10045;SDS011;5063;50.878;4.742;2023-03-01T14:53:49;10.03;;;7.50;;
10045;SDS011;5063;50.878;4.742;2023-03-01T14:56:16;9.30;;;7.33;;
10045;SDS011;5063;50.878;4.742;2023-03-01T14:58:45;9.20;;;6.70;;
10045;SDS011;5063;50.878;4.742;2023-03-01T15:01:15;7.00;;;5.73;;
10045;SDS011;5063;50.878;4.742;2023-03-01T15:03:44;9.30;;;7.27;;
10045;SDS011;5063;50.878;4.742;2023-03-01T15:06:14;10.37;;;7.17;;
10045;SDS011;5063;50.878;4.742;2023-03-01T15:08:44;9.33;;;7.40;;
10045;SDS011;5063;50.878;4.742;2023-03-01T15:13:39;10.50;;;6.33;;
10045;SDS011;5063;50.878;4.742;2023-03-01T15:16:06;8.07;;;6.43;;
10045;SDS011;5063;50.878;4.742;2023-03-01T15:18:37;9.10;;;6.73;;
10045;SDS011;5063;50.878;4.742;2023-03-01T15:21:13;7.83;;;6.20;;
10045;SDS011;5063;50.878;4.742;2023-03-01T15:23:49;9.77;;;6.47;;
10045;SDS011;5063;50.878;4.742;2023-03-01T15:26:37;9.57;;;6.97;;
10045;SDS011;5063;50.878;4.742;2023-03-01T15:29:10;8.43;;;6.47;;
10045;SDS011;5063;50.878;4.742;2023-03-01T15:31:47;10.00;;;7.23;;
10045;SDS011;5063;50.878;4.742;2023-03-01T15:36:48;8.90;;;6.67;;
10045;SDS011;5063;50.878;4.742;2023-03-01T15:39:35;7.37;;;6.23;;
10045;SDS011;5063;50.878;4.742;2023-03-01T15:42:08;9.43;;;6.67;;
10045;SDS011;5063;50.878;4.742;2023-03-01T15:44:38;10.63;;;7.03;;
10045;SDS011;5063;50.878;4.742;2023-03-01T15:47:23;12.27;;;6.87;;
10045;SDS011;5063;50.878;4.742;2023-03-01T15:49:59;9.33;;;6.97;;
10045;SDS011;5063;50.878;4.742;2023-03-01T15:52:32;7.50;;;5.90;;
10045;SDS011;5063;50.878;4.742;2023-03-01T15:55:49;8.20;;;6.33;;
10045;SDS011;5063;50.878;4.742;2023-03-01T15:58:03;8.43;;;7.17;;
10045;SDS011;5063;50.878;4.742;2023-03-01T16:00:32;6.63;;;5.80;;
10045;SDS011;5063;50.878;4.742;2023-03-01T16:02:58;7.03;;;5.93;;
10045;SDS011;5063;50.878;4.742;2023-03-01T16:05:25;6.77;;;5.93;;
10045;SDS011;5063;50.878;4.742;2023-03-01T16:07:53;7.10;;;5.77;;
10045;SDS011;5063;50.878;4.742;2023-03-01T16:10:19;9.87;;;6.50;;
10045;SDS011;5063;50.878;4.742;2023-03-01T16:12:46;9.10;;;6.50;;
10045;SDS011;5063;50.878;4.742;2023-03-01T16:15:17;11.20;;;7.03;;
10045;SDS011;5063;50.878;4.742;2023-03-01T16:17:48;9.80;;;5.70;;
10045;SDS011;5063;50.878;4.742;2023-03-01T16:20:14;9.67;;;5.80;;
10045;SDS011;5063;50.878;4.742;2023-03-01T16:22:41;7.33;;;5.73;;
10045;SDS011;5063;50.878;4.742;2023-03-01T16:25:09;7.47;;;6.27;;
10045;SDS011;5063;50.878;4.742;2023-03-01T16:27:43;11.43;;;6.10;;
10045;SDS011;5063;50.878;4.742;2023-03-01T16:30:12;7.10;;;6.33;;
10045;SDS011;5063;50.878;4.742;2023-03-01T16:32:43;7.10;;;6.00;;
10045;SDS011;5063;50.878;4.742;2023-03-01T16:35:11;7.53;;;5.93;;
10045;SDS011;5063;50.878;4.742;2023-03-01T16:37:39;9.67;;;5.83;;
10045;SDS011;5063;50.878;4.742;2023-03-01T16:40:05;8.40;;;5.93;;
10045;SDS011;5063;50.878;4.742;2023-03-01T16:42:36;7.07;;;6.20;;
10045;SDS011;5063;50.878;4.742;2023-03-01T16:45:02;6.80;;;5.83;;
10045;SDS011;5063;50.878;4.742;2023-03-01T16:47:29;8.00;;;6.67;;
10045;SDS011;5063;50.878;4.742;2023-03-01T16:49:55;6.63;;;5.70;;
10045;SDS011;5063;50.878;4.742;2023-03-01T16:52:21;7.93;;;6.23;;
10045;SDS011;5063;50.878;4.742;2023-03-01T16:54:47;10.53;;;6.00;;
10045;SDS011;5063;50.878;4.742;2023-03-01T16:57:13;8.80;;;5.90;;
10045;SDS011;5063;50.878;4.742;2023-03-01T16:59:39;8.97;;;5.70;;
10045;SDS011;5063;50.878;4.742;2023-03-01T17:02:06;8.43;;;6.53;;
10045;SDS011;5063;50.878;4.742;2023-03-01T17:04:36;8.63;;;5.67;;
10045;SDS011;5063;50.878;4.742;2023-03-01T17:07:02;7.27;;;5.93;;
10045;SDS011;5063;50.878;4.742;2023-03-01T17:09:28;8.53;;;5.93;;
10045;SDS011;5063;50.878;4.742;2023-03-01T17:11:54;8.40;;;5.30;;
10045;SDS011;5063;50.878;4.742;2023-03-01T17:14:20;9.20;;;6.40;;
10045;SDS011;5063;50.878;4.742;2023-03-01T17:16:46;11.77;;;7.23;;
10045;SDS011;5063;50.878;4.742;2023-03-01T17:19:11;9.67;;;6.37;;
10045;SDS011;5063;50.878;4.742;2023-03-01T17:21:43;8.70;;;6.10;;
10045;SDS011;5063;50.878;4.742;2023-03-01T17:24:09;13.13;;;6.77;;